Time;durP1;ratioP1;P1;durP2;ratioP2;P2;SDS_P1;SDS_P2;PMS_P1;PMS_P2;Temp;Humidity;BMP_temperature;BMP_pressure;BME280_temperature;BME280_humidity;BME280_pressure;Samples;Min_cycle;Max_cycle;Signal;HPM_P1;HPM_P2
2022/03/10 00:02:09;;;;;;;9.45;4.13;;;;;;;1.11;69.34;102065.00;5045722;28;20085;-66
2022/03/10 00:04:37;;;;;;;7.35;4.88;;;;;;;1.13;69.12;102059.97;5045598;28;20025;-66
2022/03/10 00:07:06;;;;;;;8.45;3.75;;;;;;;1.10;69.13;102063.22;5045678;28;20033;-66
2022/03/10 00:09:32;;;;;;;13.30;5.70;;;;;;;0.95;69.27;102057.22;5045308;28;20025;-66
2022/03/10 00:12:02;;;;;;;10.93;5.72;;;;;;;0.86;69.61;102078.03;5045799;28;20026;-66
2022/03/10 00:14:27;;;;;;;8.32;5.00;;;;;;;0.76;69.94;102060.38;5045506;28;20043;-66
2022/03/10 00:16:53;;;;;;;8.77;5.55;;;;;;;0.93;69.26;102074.13;5045412;28;20021;-66
2022/03/10 00:19:19;;;;;;;7.30;4.50;;;;;;;0.82;69.61;102071.84;5045686;28;20025;-66
2022/03/10 00:21:46;;;;;;;7.47;4.15;;;;;;;0.76;69.73;102068.03;5045293;28;20081;-66
2022/03/10 00:24:12;;;;;;;8.15;4.38;;;;;;;0.79;69.75;102076.78;5045539;28;20037;-66
2022/03/10 00:26:37;;;;;;;8.75;5.43;;;;;;;0.73;69.71;102074.75;5045043;28;20053;-65
2022/03/10 00:29:06;;;;;;;6.63;4.15;;;;;;;0.86;69.80;102083.16;5045247;28;20029;-66
2022/03/10 00:31:32;;;;;;;6.65;3.72;;;;;;;0.94;69.01;102071.66;5045349;28;20021;-66
2022/03/10 00:33:57;;;;;;;12.27;4.30;;;;;;;0.92;69.06;102068.16;5045022;28;20028;-66
2022/03/10 00:36:23;;;;;;;9.88;3.83;;;;;;;0.88;68.64;102063.63;5045163;28;20060;-66
2022/03/10 00:38:48;;;;;;;6.18;2.83;;;;;;;0.93;68.67;102067.34;5045355;28;20081;-67
2022/03/10 00:41:14;;;;;;;7.70;3.88;;;;;;;0.89;68.48;102056.84;5045388;28;20029;-66
2022/03/10 00:43:39;;;;;;;6.55;3.13;;;;;;;0.86;68.44;102060.13;5045071;28;20481;-66
2022/03/10 00:46:04;;;;;;;7.15;4.20;;;;;;;0.72;68.76;102070.41;5045314;28;20026;-66
2022/03/10 00:48:30;;;;;;;5.00;2.55;;;;;;;0.76;68.48;102055.25;5045361;28;20029;-66
2022/03/10 00:50:55;;;;;;;6.50;3.15;;;;;;;0.82;68.30;102064.19;5047570;28;20026;-66
2022/03/10 00:53:21;;;;;;;6.20;2.92;;;;;;;0.71;68.67;102066.09;5051633;28;20028;-65
2022/03/10 00:55:46;;;;;;;3.20;1.58;;;;;;;0.71;68.78;102072.88;5033169;28;20030;-66
2022/03/10 00:58:12;;;;;;;5.45;3.00;;;;;;;0.68;68.88;102077.81;5051498;28;20021;-66
2022/03/10 01:00:37;;;;;;;34.78;3.17;;;;;;;0.61;69.05;102086.78;5051968;28;20025;-66
2022/03/10 01:03:04;;;;;;;5.70;2.67;;;;;;;0.51;69.53;102085.38;5051412;28;20354;-66
2022/03/10 01:05:30;;;;;;;4.28;2.75;;;;;;;0.59;69.37;102089.25;5051756;28;20034;-66
2022/03/10 01:07:55;;;;;;;8.80;3.70;;;;;;;0.63;69.32;102085.22;5051597;28;20080;-67
2022/03/10 01:10:21;;;;;;;5.30;2.80;;;;;;;0.79;68.96;102087.00;5051243;28;20032;-66
2022/03/10 01:12:46;;;;;;;4.50;2.78;;;;;;;0.69;69.22;102079.56;5051267;28;20033;-66
2022/03/10 01:15:17;;;;;;;3.13;2.58;;;;;;;0.73;69.41;102082.44;5051519;28;20029;-66
2022/03/10 01:17:43;;;;;;;5.73;2.70;;;;;;;0.72;69.59;102088.31;5051650;28;20021;-66
2022/03/10 01:20:09;;;;;;;5.78;2.22;;;;;;;0.71;69.55;102089.13;5051680;28;20025;-66
2022/03/10 01:22:35;;;;;;;7.60;3.40;;;;;;;0.73;69.49;102096.88;5051574;28;20021;-65
2022/03/10 01:25:01;;;;;;;7.30;3.00;;;;;;;0.72;69.52;102093.44;5051445;28;20022;-65
2022/03/10 01:27:26;;;;;;;6.30;2.63;;;;;;;0.71;69.54;102098.44;5051300;28;20028;-65
2022/03/10 01:29:51;;;;;;;2.72;2.50;;;;;;;0.78;69.43;102100.59;5051314;28;20048;-65
2022/03/10 01:32:17;;;;;;;5.05;2.90;;;;;;;0.65;69.79;102098.09;5051312;28;20017;-65
2022/03/10 01:34:42;;;;;;;4.22;2.50;;;;;;;0.73;69.73;102102.00;5033337;28;20056;-65
2022/03/10 01:37:07;;;;;;;2.85;2.05;;;;;;;0.74;69.89;102093.50;5051145;28;20080;-64
2022/03/10 01:39:33;;;;;;;5.25;2.47;;;;;;;0.67;70.05;102097.38;5051196;28;20025;-66
2022/03/10 01:42:06;;;;;;;7.50;2.58;;;;;;;0.65;69.96;102091.31;5050864;28;20025;-66
2022/03/10 01:44:33;;;;;;;5.80;2.83;;;;;;;0.64;70.15;102091.22;5051154;28;20080;-65
2022/03/10 01:46:58;;;;;;;6.18;2.90;;;;;;;0.55;70.45;102089.88;5051003;28;20051;-65
2022/03/10 01:49:24;;;;;;;4.72;2.60;;;;;;;0.52;70.58;102099.91;5051003;28;20033;-65
2022/03/10 01:51:49;;;;;;;9.15;3.25;;;;;;;0.53;70.73;102095.69;5051028;28;20033;-65
2022/03/10 01:54:14;;;;;;;5.00;2.38;;;;;;;0.57;70.56;102102.75;5050703;28;20026;-65
2022/03/10 01:56:41;;;;;;;6.43;2.47;;;;;;;0.69;70.48;102084.69;5050820;28;20076;-66
2022/03/10 01:59:07;;;;;;;4.45;2.25;;;;;;;0.57;70.94;102092.50;5051157;28;20017;-66
2022/03/10 02:01:32;;;;;;;6.53;3.00;;;;;;;0.47;71.19;102083.41;5051056;28;20541;-66
2022/03/10 02:03:58;;;;;;;4.97;2.65;;;;;;;0.51;71.66;102094.69;5047070;28;20029;-65
2022/03/10 02:06:25;;;;;;;3.22;2.08;;;;;;;0.59;71.63;102094.38;5047927;28;20037;-66
2022/03/10 02:11:34;;;;;;;2.95;2.20;;;;;;;0.57;71.56;102090.84;5047639;28;20082;-66
2022/03/10 02:17:19;;;;;;;4.60;2.55;;;;;;;0.57;71.68;102089.97;5047483;28;20075;-66
2022/03/10 02:19:29;;;;;;;4.28;2.00;;;;;;;0.46;72.01;102081.66;5048211;28;20028;-66
2022/03/10 02:21:57;;;;;;;2.80;2.38;;;;;;;0.48;72.06;102077.50;5047542;28;20026;-65
2022/03/10 02:24:22;;;;;;;3.97;2.38;;;;;;;0.43;72.27;102086.56;5047488;28;20021;-66
2022/03/10 02:26:48;;;;;;;3.35;1.77;;;;;;;0.43;71.98;102069.56;5047456;28;20056;-66
2022/03/10 02:29:13;;;;;;;3.17;1.63;;;;;;;0.41;72.08;102081.38;5047486;28;20025;-66
2022/03/10 02:31:40;;;;;;;2.28;1.55;;;;;;;0.20;72.71;102086.03;5047458;28;20030;-66
2022/03/10 02:34:08;;;;;;;3.63;1.50;;;;;;;0.27;72.72;102090.75;5047299;28;20021;-66
2022/03/10 02:36:33;;;;;;;2.88;1.65;;;;;;;0.47;72.31;102076.63;5047196;28;20056;-66
2022/03/10 02:38:59;;;;;;;5.78;1.98;;;;;;;0.48;72.73;102080.03;5047399;28;20169;-67
2022/03/10 02:41:24;;;;;;;2.65;1.40;;;;;;;0.51;72.79;102085.38;5047406;28;20029;-66
2022/03/10 02:43:49;;;;;;;1.55;1.23;;;;;;;0.40;73.50;102082.13;5047261;28;20025;-66
2022/03/10 02:46:15;;;;;;;5.35;2.50;;;;;;;0.37;73.89;102071.75;5047376;28;20067;-66
2022/03/10 02:48:40;;;;;;;4.20;1.80;;;;;;;0.42;73.74;102083.13;5047007;28;20132;-65
2022/03/10 02:51:05;;;;;;;1.20;0.93;;;;;;;0.36;74.25;102067.44;5047017;28;20381;-67
2022/03/10 02:53:31;;;;;;;3.42;1.63;;;;;;;0.41;74.00;102054.94;5047059;28;20088;-66
2022/03/10 02:55:56;;;;;;;3.08;2.58;;;;;;;0.41;74.32;102063.50;5046457;28;20029;-67
2022/03/10 02:58:21;;;;;;;2.67;1.98;;;;;;;0.42;74.48;102077.13;5047033;28;20021;-66
2022/03/10 03:00:48;;;;;;;3.78;1.08;;;;;;;0.24;75.32;102072.66;5046726;28;20025;-66
2022/03/10 03:03:14;;;;;;;2.67;1.85;;;;;;;0.17;75.57;102075.63;5028785;28;20022;-65
2022/03/10 03:05:39;;;;;;;2.78;1.35;;;;;;;0.10;75.64;102070.16;5046726;28;20021;-66
2022/03/10 03:08:06;;;;;;;3.25;2.10;;;;;;;0.14;75.62;102078.00;5046846;28;20036;-67
2022/03/10 03:10:36;;;;;;;3.40;1.92;;;;;;;0.09;75.72;102060.75;5046622;28;20109;-69
2022/03/10 03:13:02;;;;;;;4.25;2.03;;;;;;;0.04;75.82;102092.75;5046648;28;20053;-67
2022/03/10 03:15:28;;;;;;;4.38;2.47;;;;;;;-0.06;76.17;102101.53;5045467;28;20025;-66
2022/03/10 03:17:53;;;;;;;5.75;1.88;;;;;;;-0.03;76.25;102099.16;5046774;28;20024;-67
2022/03/10 03:20:18;;;;;;;16.83;2.17;;;;;;;-0.01;76.22;102100.16;5046396;28;20095;-67
2022/03/10 03:22:44;;;;;;;4.15;1.98;;;;;;;0.01;76.46;102089.13;5028504;28;20025;-67
2022/03/10 03:25:13;;;;;;;4.80;1.77;;;;;;;-0.11;76.74;102087.56;5046291;28;20029;-67
2022/03/10 03:27:39;;;;;;;2.95;1.90;;;;;;;-0.26;77.38;102102.81;5028320;28;20097;-67
2022/03/10 03:30:05;;;;;;;4.03;1.92;;;;;;;-0.09;77.18;102096.22;5046202;28;20397;-66
2022/03/10 03:32:31;;;;;;;5.15;2.20;;;;;;;-0.21;77.59;102111.66;5046333;28;20025;-67
2022/03/10 03:34:57;;;;;;;2.88;1.70;;;;;;;-0.22;77.77;102126.88;5046097;28;20448;-66
2022/03/10 03:37:22;;;;;;;3.70;2.05;;;;;;;-0.36;78.46;102131.06;5046129;28;20080;-66
2022/03/10 03:39:47;;;;;;;5.85;2.70;;;;;;;-0.29;78.22;102139.22;5045980;28;20021;-66
2022/03/10 03:42:13;;;;;;;5.80;3.05;;;;;;;-0.25;78.67;102145.41;5045803;28;20021;-67
2022/03/10 03:44:38;;;;;;;3.38;2.17;;;;;;;-0.23;78.77;102138.75;5046067;28;20040;-67
2022/03/10 03:47:03;;;;;;;5.20;2.35;;;;;;;-0.32;79.34;102146.69;5046284;28;20053;-66
2022/03/10 03:49:28;;;;;;;5.03;3.30;;;;;;;-0.29;79.47;102144.31;5045935;28;20020;-66
2022/03/10 03:51:54;;;;;;;3.15;2.03;;;;;;;-0.15;79.41;102146.91;5046026;28;20496;-66
2022/03/10 03:54:19;;;;;;;7.47;3.05;;;;;;;-0.06;79.03;102137.25;5045590;28;20053;-66
2022/03/10 03:56:44;;;;;;;8.07;4.03;;;;;;;-0.18;79.94;102157.81;5045661;28;20036;-67
2022/03/10 03:59:10;;;;;;;7.90;3.75;;;;;;;0.04;79.65;102158.28;5028064;28;20025;-67
2022/03/10 04:01:35;;;;;;;12.18;5.13;;;;;;;-0.14;80.12;102167.41;5046024;28;20049;-67
2022/03/10 04:04:00;;;;;;;6.07;3.83;;;;;;;-0.11;80.24;102159.06;5045651;28;20031;-67
2022/03/10 04:06:26;;;;;;;5.03;2.72;;;;;;;0.22;79.68;102164.53;5045884;28;20434;-66
2022/03/10 04:08:52;;;;;;;8.70;4.70;;;;;;;0.04;80.09;102181.25;5046151;28;20373;-67
2022/03/10 04:11:17;;;;;;;8.65;5.07;;;;;;;-0.10;80.83;102176.16;5045417;28;20033;-67
2022/03/10 04:13:43;;;;;;;9.95;4.70;;;;;;;-0.08;81.03;102176.25;5045760;28;20021;-66
2022/03/10 04:16:08;;;;;;;16.92;6.03;;;;;;;-0.10;81.40;102177.81;5045789;28;20029;-67
2022/03/10 04:18:34;;;;;;;12.65;5.80;;;;;;;-0.07;81.44;102181.47;5045623;28;20045;-67
2022/03/10 04:21:00;;;;;;;9.68;4.20;;;;;;;0.16;80.50;102171.81;5045705;28;20025;-67
2022/03/10 04:23:28;;;;;;;7.45;3.85;;;;;;;0.19;80.87;102179.66;5045507;28;20052;-67
2022/03/10 04:25:54;;;;;;;8.18;4.45;;;;;;;0.14;81.19;102177.63;5044725;28;20044;-67
2022/03/10 04:28:19;;;;;;;7.78;3.67;;;;;;;0.27;81.16;102177.63;5045340;28;20029;-67
2022/03/10 04:30:45;;;;;;;8.73;4.45;;;;;;;0.15;81.57;102185.38;5045148;28;20029;-66
2022/03/10 04:33:11;;;;;;;9.25;3.45;;;;;;;0.39;81.07;102181.72;5027395;28;20029;-70
2022/03/10 04:35:37;;;;;;;11.50;3.58;;;;;;;0.38;81.32;102183.41;5045369;28;20021;-67
2022/03/10 04:38:02;;;;;;;6.95;3.95;;;;;;;0.35;81.51;102190.88;5044940;28;20041;-67
2022/03/10 04:40:28;;;;;;;4.88;3.47;;;;;;;0.44;81.49;102186.34;5044819;28;20091;-68
2022/03/10 04:42:53;;;;;;;4.47;3.05;;;;;;;0.43;81.34;102188.78;5045348;28;20072;-67
2022/03/10 04:45:19;;;;;;;9.15;4.55;;;;;;;0.43;81.90;102184.53;5045103;28;20035;-67
2022/03/10 04:47:44;;;;;;;6.28;4.35;;;;;;;0.41;81.84;102186.16;5045050;28;20029;-67
2022/03/10 04:50:12;;;;;;;6.57;4.32;;;;;;;0.37;82.06;102184.16;5045142;28;20042;-67
2022/03/10 04:52:38;;;;;;;5.30;3.25;;;;;;;0.42;82.33;102182.78;5045005;28;20018;-68
2022/03/10 04:55:04;;;;;;;12.82;4.32;;;;;;;0.57;81.73;102182.88;5044507;28;20420;-68
2022/03/10 04:57:29;;;;;;;5.90;4.05;;;;;;;0.56;81.79;102186.19;5045174;28;20072;-68
2022/03/10 04:59:54;;;;;;;15.35;5.55;;;;;;;0.52;81.88;102168.91;5044971;28;20025;-69
2022/03/10 05:02:20;;;;;;;7.90;2.63;;;;;;;0.76;81.33;102194.22;5044817;28;20036;-69
2022/03/10 05:04:45;;;;;;;6.25;3.65;;;;;;;0.66;81.88;102191.88;5044672;28;20040;-68
2022/03/10 05:07:11;;;;;;;6.50;3.92;;;;;;;0.69;81.89;102203.19;5044843;28;20017;-67
2022/03/10 05:09:37;;;;;;;7.95;4.10;;;;;;;0.59;82.33;102205.97;5027174;28;20104;-66
2022/03/10 05:12:03;;;;;;;9.70;4.38;;;;;;;0.55;82.47;102212.56;5044837;28;20024;-67
2022/03/10 05:14:28;;;;;;;5.90;3.42;;;;;;;0.83;81.73;102203.16;5045131;28;20025;-68
2022/03/10 05:16:54;;;;;;;7.85;4.78;;;;;;;0.63;82.19;102184.91;5044978;28;20028;-68
2022/03/10 05:19:19;;;;;;;5.20;3.55;;;;;;;0.84;81.48;102203.25;5045090;28;20022;-67
2022/03/10 05:21:45;;;;;;;7.05;3.55;;;;;;;0.82;81.59;102197.13;5045052;28;20025;-67
2022/03/10 05:24:11;;;;;;;8.63;4.15;;;;;;;0.84;81.43;102199.78;5026920;28;20029;-67
2022/03/10 05:26:37;;;;;;;6.43;2.95;;;;;;;0.89;81.43;102200.06;5044753;28;20045;-69
2022/03/10 05:29:03;;;;;;;8.50;3.67;;;;;;;0.88;81.34;102196.63;5044856;28;20037;-69
2022/03/10 05:31:28;;;;;;;23.40;7.25;;;;;;;0.89;81.45;102194.94;5044680;28;20025;-69
2022/03/10 05:33:54;;;;;;;9.30;3.80;;;;;;;0.73;82.10;102200.03;5044519;28;20051;-69
2022/03/10 05:36:19;;;;;;;5.30;3.22;;;;;;;0.86;82.28;102201.63;5044264;28;20267;-70
2022/03/10 05:38:45;;;;;;;10.15;3.85;;;;;;;0.94;81.82;102199.53;5047246;28;20013;-69
2022/03/10 05:41:10;;;;;;;4.80;3.30;;;;;;;1.02;81.19;102191.47;5047909;28;20033;-69
2022/03/10 05:43:35;;;;;;;6.00;2.63;;;;;;;0.95;81.50;102196.22;5048362;28;20033;-69
2022/03/10 05:46:01;;;;;;;10.07;4.97;;;;;;;0.80;82.29;102200.41;5048303;28;20102;-69
2022/03/10 05:48:27;;;;;;;6.85;4.05;;;;;;;0.99;81.64;102202.41;5048096;28;20030;-69
2022/03/10 05:50:52;;;;;;;6.57;4.00;;;;;;;1.03;81.43;102199.22;5048289;28;20024;-70
2022/03/10 05:53:17;;;;;;;8.00;3.90;;;;;;;1.13;81.15;102200.66;5047960;28;20029;-69
2022/03/10 05:55:43;;;;;;;18.70;5.03;;;;;;;1.16;81.01;102197.41;5047684;28;20070;-69
2022/03/10 05:58:08;;;;;;;7.22;3.35;;;;;;;0.96;81.51;102197.06;5048199;28;20073;-69
2022/03/10 06:00:33;;;;;;;9.57;4.55;;;;;;;0.97;81.78;102215.09;5047949;28;20021;-69
2022/03/10 06:02:59;;;;;;;5.95;3.97;;;;;;;0.98;82.12;102211.75;5030249;28;20025;-68
2022/03/10 06:05:24;;;;;;;8.05;4.10;;;;;;;1.13;81.70;102216.03;5047749;28;20033;-70
2022/03/10 06:07:49;;;;;;;6.95;3.53;;;;;;;1.11;81.53;102209.91;5047788;28;20025;-69
2022/03/10 06:10:15;;;;;;;9.23;5.57;;;;;;;1.07;81.98;102216.50;5047852;28;20484;-69
2022/03/10 06:12:40;;;;;;;6.85;3.72;;;;;;;1.23;81.25;102223.44;5047762;28;20021;-69
2022/03/10 06:15:07;;;;;;;7.25;4.45;;;;;;;1.36;80.82;102207.13;5047405;28;20029;-72
2022/03/10 06:17:33;;;;;;;5.72;3.80;;;;;;;1.27;80.90;102219.41;5047578;28;20029;-70
2022/03/10 06:19:59;;;;;;;4.35;2.42;;;;;;;1.21;81.05;102208.78;5047887;28;20075;-69
2022/03/10 06:22:28;;;;;;;5.90;3.70;;;;;;;1.33;80.44;102213.75;5047745;28;20029;-69
2022/03/10 06:24:54;;;;;;;8.13;4.18;;;;;;;1.19;81.26;102207.81;5047347;28;20025;-70
2022/03/10 06:27:22;;;;;;;12.75;4.32;;;;;;;1.15;81.72;102214.41;5047644;28;20132;-69
2022/03/10 06:29:48;;;;;;;6.28;3.55;;;;;;;1.22;81.41;102218.22;5047311;28;20474;-69
2022/03/10 06:32:16;;;;;;;6.85;3.63;;;;;;;1.51;80.13;102215.63;5047762;28;20025;-69
2022/03/10 06:34:41;;;;;;;6.35;2.97;;;;;;;1.40;80.48;102218.44;5047393;28;20021;-70
2022/03/10 06:37:08;;;;;;;9.05;3.88;;;;;;;1.35;80.84;102207.03;5047556;28;20109;-69
2022/03/10 06:39:34;;;;;;;9.02;3.85;;;;;;;1.43;80.43;102221.19;5047451;28;20536;-69
2022/03/10 06:42:00;;;;;;;11.32;4.07;;;;;;;1.39;80.71;102218.34;5047242;28;20033;-69
2022/03/10 06:44:26;;;;;;;5.55;2.97;;;;;;;1.37;80.71;102213.16;5047115;28;20112;-69
2022/03/10 06:46:52;;;;;;;5.68;2.70;;;;;;;1.35;80.61;102214.72;5046812;28;20060;-69
2022/03/10 06:49:18;;;;;;;6.20;2.97;;;;;;;1.56;80.16;102221.91;5046236;28;20092;-70
2022/03/10 06:51:43;;;;;;;7.10;3.15;;;;;;;1.59;79.57;102222.06;5046693;28;20022;-68
2022/03/10 06:54:09;;;;;;;4.38;2.78;;;;;;;1.43;80.12;102223.75;5046897;28;20056;-69
2022/03/10 06:56:34;;;;;;;6.97;3.22;;;;;;;1.39;80.83;102228.59;5046438;28;20028;-68
2022/03/10 06:59:00;;;;;;;4.70;3.42;;;;;;;1.48;80.57;102235.16;5047141;28;20428;-68
2022/03/10 07:01:25;;;;;;;9.38;3.38;;;;;;;1.76;79.20;102230.72;5047167;28;20026;-69
2022/03/10 07:03:51;;;;;;;8.57;4.20;;;;;;;1.54;79.92;102231.16;5046608;28;20060;-69
2022/03/10 07:06:17;;;;;;;8.82;3.85;;;;;;;1.53;80.06;102242.19;5047026;28;20048;-69
2022/03/10 07:08:43;;;;;;;5.55;3.70;;;;;;;1.67;79.86;102238.78;5046878;28;20022;-69
2022/03/10 07:11:08;;;;;;;5.45;2.50;;;;;;;1.71;79.28;102239.84;5046442;28;20029;-69
2022/03/10 07:13:35;;;;;;;4.30;3.13;;;;;;;1.62;79.81;102240.16;5046863;28;20032;-69
2022/03/10 07:16:00;;;;;;;12.25;3.85;;;;;;;1.85;79.19;102243.19;5046355;28;20021;-69
2022/03/10 07:18:26;;;;;;;5.15;3.40;;;;;;;2.08;77.95;102230.78;5046580;28;20024;-68
2022/03/10 07:20:51;;;;;;;3.13;2.53;;;;;;;1.96;78.28;102231.00;5046324;28;20044;-69
2022/03/10 07:23:16;;;;;;;8.65;3.42;;;;;;;1.91;78.58;102229.84;5046209;28;20026;-69
2022/03/10 07:25:43;;;;;;;3.50;2.60;;;;;;;1.82;78.73;102218.25;5045825;28;20033;-69
2022/03/10 07:28:09;;;;;;;5.47;3.25;;;;;;;1.87;78.90;102226.22;5045829;28;20022;-70
2022/03/10 07:30:34;;;;;;;5.35;3.42;;;;;;;1.67;79.68;102232.75;5045924;28;20030;-68
2022/03/10 07:32:59;;;;;;;5.22;2.83;;;;;;;1.91;78.86;102220.47;5045687;28;20039;-68
2022/03/10 07:35:25;;;;;;;6.85;3.28;;;;;;;1.86;79.06;102229.56;5045305;28;20045;-69
2022/03/10 07:37:53;;;;;;;6.22;4.05;;;;;;;1.79;79.26;102227.47;5045596;28;20489;-68
2022/03/10 07:40:20;;;;;;;8.90;3.03;;;;;;;1.78;79.35;102235.94;5045199;28;20021;-69
2022/03/10 07:42:46;;;;;;;6.18;3.30;;;;;;;2.09;77.92;102233.44;5045574;28;20024;-68
2022/03/10 07:45:12;;;;;;;5.65;2.88;;;;;;;2.17;77.61;102233.84;5045411;28;20018;-69
2022/03/10 07:47:37;;;;;;;10.90;4.30;;;;;;;1.90;78.17;102246.88;5045485;28;20033;-68
2022/03/10 07:50:05;;;;;;;3.33;1.77;;;;;;;2.13;77.85;102243.84;5045421;28;20120;-68
2022/03/10 07:52:30;;;;;;;4.25;2.97;;;;;;;1.91;78.33;102235.84;5045173;28;20026;-68
2022/03/10 07:54:55;;;;;;;7.55;3.95;;;;;;;2.10;77.70;102237.78;5044731;28;20036;-67
2022/03/10 07:57:21;;;;;;;2.65;2.13;;;;;;;2.16;77.21;102251.72;5045502;28;20033;-69
2022/03/10 07:59:47;;;;;;;3.50;2.38;;;;;;;2.06;77.59;102227.28;5045036;28;20084;-68
2022/03/10 08:02:13;;;;;;;6.43;2.92;;;;;;;2.19;76.91;102227.16;5045038;28;20048;-68
2022/03/10 08:04:39;;;;;;;3.33;2.28;;;;;;;2.28;76.62;102237.03;5044996;28;20025;-68
2022/03/10 08:07:04;;;;;;;5.97;3.00;;;;;;;2.18;76.59;102230.50;5045188;28;20021;-70
2022/03/10 08:09:30;;;;;;;4.18;2.38;;;;;;;2.28;76.31;102242.16;5027048;28;20038;-67
2022/03/10 08:11:55;;;;;;;7.78;3.17;;;;;;;2.18;76.63;102256.16;5044725;28;20212;-68
2022/03/10 08:14:20;;;;;;;6.20;2.63;;;;;;;2.21;75.95;102247.72;5044694;28;20034;-67
2022/03/10 08:16:45;;;;;;;9.35;1.90;;;;;;;2.18;76.94;102257.81;5044669;28;20025;-68
2022/03/10 08:19:11;;;;;;;8.13;3.47;;;;;;;2.26;75.96;102259.13;5026755;28;20032;-66
2022/03/10 08:21:36;;;;;;;4.75;2.15;;;;;;;2.41;75.62;102255.66;5045162;28;20036;-68
2022/03/10 08:24:02;;;;;;;5.65;3.15;;;;;;;2.28;76.03;102262.69;5044966;28;20465;-67
2022/03/10 08:26:27;;;;;;;3.70;2.55;;;;;;;2.34;75.55;102262.13;5044853;28;20366;-66
2022/03/10 08:28:53;;;;;;;2.72;1.80;;;;;;;2.32;75.94;102263.69;5044785;28;20081;-69
2022/03/10 08:31:19;;;;;;;2.47;1.92;;;;;;;2.28;76.01;102259.22;5044969;28;20448;-69
2022/03/10 08:33:45;;;;;;;4.25;1.95;;;;;;;2.40;75.63;102262.47;5044856;28;20044;-68
2022/03/10 08:36:11;;;;;;;5.05;2.85;;;;;;;2.29;75.59;102255.84;5044385;28;20049;-67
2022/03/10 08:38:37;;;;;;;3.58;2.10;;;;;;;2.45;75.40;102245.66;5044619;28;20021;-69
2022/03/10 08:41:02;;;;;;;5.57;2.25;;;;;;;2.35;75.10;102226.31;5044242;28;20124;-69
2022/03/10 08:43:29;;;;;;;4.30;2.05;;;;;;;2.36;75.05;102224.66;5027090;28;20048;-68
2022/03/10 08:45:56;;;;;;;2.90;2.05;;;;;;;2.33;75.45;102243.28;5044477;28;20025;-68
2022/03/10 08:48:21;;;;;;;2.95;2.00;;;;;;;2.59;74.66;102230.13;5044517;28;20089;-68
2022/03/10 08:50:46;;;;;;;3.67;1.80;;;;;;;2.63;74.25;102239.78;5044436;28;20033;-69
2022/03/10 08:53:12;;;;;;;4.97;2.42;;;;;;;2.39;75.10;102258.13;5044612;28;20030;-68
2022/03/10 08:55:37;;;;;;;2.78;1.77;;;;;;;2.33;76.53;102261.22;5043680;28;20040;-68
2022/03/10 08:58:03;;;;;;;3.63;2.20;;;;;;;2.49;75.79;102244.16;5044417;28;20077;-69
2022/03/10 09:00:28;;;;;;;2.97;2.03;;;;;;;2.80;74.27;102262.88;5044426;28;20025;-68
2022/03/10 09:02:53;;;;;;;3.15;1.83;;;;;;;2.78;74.00;102269.63;5044617;28;20123;-68
2022/03/10 09:05:19;;;;;;;3.70;1.92;;;;;;;2.72;73.75;102265.91;5044064;28;20033;-68
2022/03/10 09:07:44;;;;;;;4.97;3.28;;;;;;;2.61;74.28;102272.13;5044300;28;20053;-67
2022/03/10 09:10:10;;;;;;;5.68;3.60;;;;;;;2.59;75.08;102263.47;5044028;28;20029;-67
2022/03/10 09:12:37;;;;;;;4.50;2.63;;;;;;;2.67;74.70;102257.06;5046692;28;20021;-67
2022/03/10 09:15:03;;;;;;;5.15;2.85;;;;;;;2.76;73.45;102248.13;5048315;28;20030;-68
2022/03/10 09:17:28;;;;;;;6.07;1.85;;;;;;;2.83;73.46;102257.91;5048295;28;20022;-71
2022/03/10 09:29:59;;;;;;;4.97;2.03;;;;;;;2.84;72.99;102275.06;5048404;28;20584;-69
2022/03/10 09:32:25;;;;;;;9.48;3.50;;;;;;;2.64;73.86;102269.72;5048103;28;20294;-68
2022/03/10 09:34:50;;;;;;;3.75;2.75;;;;;;;2.71;73.46;102264.16;5047587;28;20085;-67
2022/03/10 09:37:16;;;;;;;5.25;3.20;;;;;;;2.65;74.30;102265.50;5029672;28;20069;-67
2022/03/10 09:39:41;;;;;;;4.28;2.67;;;;;;;2.66;74.35;102275.84;5047898;28;20017;-67
2022/03/10 09:42:09;;;;;;;5.35;3.17;;;;;;;2.82;74.17;102281.78;5047345;28;20021;-67
2022/03/10 09:44:36;;;;;;;7.05;2.22;;;;;;;3.11;72.09;102274.78;5047574;28;20029;-69
2022/03/10 09:47:03;;;;;;;2.95;2.33;;;;;;;3.05;71.90;102274.47;5047634;28;20029;-68
2022/03/10 09:49:29;;;;;;;3.80;2.17;;;;;;;2.91;72.57;102272.03;5047718;28;20535;-68
2022/03/10 09:51:56;;;;;;;3.63;2.35;;;;;;;2.83;73.35;102266.47;5047847;28;20029;-68
2022/03/10 09:54:22;;;;;;;3.78;2.08;;;;;;;3.01;72.73;102263.13;5045873;28;20029;-67
2022/03/10 09:56:48;;;;;;;6.43;2.00;;;;;;;2.99;72.70;102253.59;5047043;28;20370;-67
2022/03/10 09:59:13;;;;;;;3.78;1.90;;;;;;;3.14;71.89;102263.78;5047514;28;20017;-68
2022/03/10 10:01:39;;;;;;;6.13;3.05;;;;;;;2.93;73.17;102264.41;5047541;28;20026;-68
2022/03/10 10:04:06;;;;;;;2.22;1.50;;;;;;;3.17;71.97;102252.00;5047214;28;20026;-67
2022/03/10 10:06:31;;;;;;;6.57;2.97;;;;;;;3.15;71.64;102274.13;5047414;28;20029;-68
2022/03/10 10:08:57;;;;;;;3.90;2.20;;;;;;;3.29;70.75;102286.81;5029429;28;20389;-69
2022/03/10 10:11:31;;;;;;;4.75;2.13;;;;;;;3.21;70.92;102282.16;5046896;28;20032;-68
2022/03/10 10:13:56;;;;;;;3.30;1.75;;;;;;;3.24;70.67;102280.53;5029347;28;20029;-68
2022/03/10 10:16:22;;;;;;;4.35;2.00;;;;;;;3.04;71.75;102271.00;5047204;28;20025;-69
2022/03/10 10:18:55;;;;;;;6.15;2.13;;;;;;;3.10;71.58;102271.31;5029062;28;20017;-68
2022/03/10 10:21:22;;;;;;;4.90;2.55;;;;;;;3.21;70.80;102266.75;5047429;28;20022;-68
2022/03/10 10:23:49;;;;;;;6.15;2.20;;;;;;;3.19;71.42;102260.66;5046184;28;20051;-68
2022/03/10 10:26:15;;;;;;;6.22;2.33;;;;;;;3.22;71.12;102276.22;5046592;28;20076;-68
2022/03/10 10:28:43;;;;;;;3.28;1.95;;;;;;;3.38;70.53;102268.41;5046716;28;20389;-67
2022/03/10 10:31:11;;;;;;;2.67;1.83;;;;;;;3.43;70.14;102265.31;5046749;28;20041;-67
2022/03/10 10:33:38;;;;;;;17.85;3.28;;;;;;;3.18;71.85;102260.59;5046801;28;20037;-68
2022/03/10 10:36:12;;;;;;;5.88;2.33;;;;;;;3.41;71.06;102263.44;5046483;28;20097;-68
2022/03/10 10:38:39;;;;;;;4.53;1.83;;;;;;;3.59;70.13;102268.66;5046788;28;20029;-67
2022/03/10 10:41:28;;;;;;;3.70;2.05;;;;;;;3.49;70.18;102259.59;5046594;28;20034;-68
2022/03/10 10:44:06;;;;;;;2.17;1.65;;;;;;;3.41;71.18;102271.16;5046716;28;20021;-67
2022/03/10 10:46:38;;;;;;;6.70;2.08;;;;;;;3.79;69.28;102267.06;5046544;28;20033;-67
2022/03/10 10:49:11;;;;;;;4.47;2.33;;;;;;;3.76;69.09;102277.19;5046254;28;20033;-67
2022/03/10 10:51:47;;;;;;;1.88;1.58;;;;;;;3.67;68.83;102272.50;5046408;28;20049;-67
2022/03/10 10:54:18;;;;;;;3.17;2.63;;;;;;;3.45;70.18;102276.50;5046001;28;20135;-66
2022/03/10 10:57:05;;;;;;;3.28;2.10;;;;;;;3.61;69.74;102285.00;5045845;28;20112;-69
2022/03/10 10:59:34;;;;;;;3.92;2.30;;;;;;;3.58;69.07;102266.84;5046164;28;20045;-68
2022/03/10 11:02:09;;;;;;;6.75;3.72;;;;;;;3.52;69.99;102285.44;5046207;28;20441;-67
2022/03/10 11:04:36;;;;;;;2.72;1.88;;;;;;;3.84;69.06;102275.91;5028341;28;20470;-68
2022/03/10 11:07:02;;;;;;;3.22;2.47;;;;;;;3.76;68.54;102271.16;5046293;28;20045;-67
2022/03/10 11:09:30;;;;;;;6.28;2.75;;;;;;;3.63;69.13;102277.38;5046423;28;20029;-67
2022/03/10 11:11:56;;;;;;;3.30;2.05;;;;;;;3.70;69.49;102277.78;5045850;28;20036;-68
2022/03/10 11:14:22;;;;;;;4.47;2.78;;;;;;;3.90;68.08;102275.31;5046055;28;20112;-68
2022/03/10 11:16:48;;;;;;;4.25;2.60;;;;;;;3.88;68.22;102289.78;5045974;28;20085;-67
2022/03/10 11:19:15;;;;;;;8.27;2.50;;;;;;;3.77;69.02;102288.38;5045716;28;20028;-68
2022/03/10 11:21:57;;;;;;;6.28;2.58;;;;;;;3.97;68.02;102282.53;5046104;28;20037;-67
2022/03/10 11:24:49;;;;;;;6.82;1.92;;;;;;;3.79;68.53;102289.31;5045071;28;20425;-68
2022/03/10 11:27:39;;;;;;;3.13;1.98;;;;;;;3.90;68.02;102289.88;5045656;28;20025;-67
2022/03/10 11:30:06;;;;;;;4.25;2.22;;;;;;;3.86;68.81;102283.69;5036280;28;20140;-68
2022/03/10 11:32:32;;;;;;;6.35;3.05;;;;;;;3.85;68.74;102281.91;5045892;28;20025;-68
2022/03/10 11:35:00;;;;;;;4.57;2.78;;;;;;;4.01;68.10;102272.41;5044819;28;20461;-68
2022/03/10 11:37:40;;;;;;;6.47;3.05;;;;;;;4.03;68.00;102281.94;5045407;28;20103;-68
2022/03/10 11:40:09;;;;;;;3.13;1.65;;;;;;;4.09;67.82;102269.38;5045370;28;20472;-68
2022/03/10 11:42:36;;;;;;;4.15;2.20;;;;;;;4.34;66.49;102273.13;5045561;28;20045;-67
2022/03/10 11:45:07;;;;;;;5.45;2.22;;;;;;;4.16;67.72;102267.09;5045448;28;20478;-67